sensor_id;sensor_type;location;lat;lon;timestamp;P1;durP1;ratioP1;P2;durP2;ratioP2
71351;SDS011;59159;51.652;4.864;2024-03-06T00:02:00;6.93;;;2.72;;
71351;SDS011;59159;51.652;4.864;2024-03-06T00:04:27;7.40;;;3.35;;
71351;SDS011;59159;51.652;4.864;2024-03-06T00:06:53;6.82;;;3.05;;
71351;SDS011;59159;51.652;4.864;2024-03-06T00:09:20;7.70;;;3.07;;
71351;SDS011;59159;51.652;4.864;2024-03-06T00:11:46;7.22;;;3.45;;
71351;SDS011;59159;51.652;4.864;2024-03-06T00:14:12;6.75;;;2.50;;
71351;SDS011;59159;51.652;4.864;2024-03-06T00:16:38;6.17;;;2.43;;
71351;SDS011;59159;51.652;4.864;2024-03-06T00:19:04;6.63;;;2.50;;
71351;SDS011;59159;51.652;4.864;2024-03-06T00:21:30;7.28;;;2.65;;
71351;SDS011;59159;51.652;4.864;2024-03-06T00:23:56;6.70;;;2.47;;
71351;SDS011;59159;51.652;4.864;2024-03-06T00:26:22;8.75;;;3.20;;
71351;SDS011;59159;51.652;4.864;2024-03-06T00:28:48;6.07;;;2.80;;
71351;SDS011;59159;51.652;4.864;2024-03-06T00:31:14;6.72;;;3.08;;
71351;SDS011;59159;51.652;4.864;2024-03-06T00:33:40;7.27;;;3.00;;
71351;SDS011;59159;51.652;4.864;2024-03-06T00:36:06;7.78;;;2.92;;
71351;SDS011;59159;51.652;4.864;2024-03-06T00:38:32;7.03;;;2.90;;
71351;SDS011;59159;51.652;4.864;2024-03-06T00:40:58;5.60;;;2.67;;
71351;SDS011;59159;51.652;4.864;2024-03-06T00:43:24;6.07;;;2.80;;
71351;SDS011;59159;51.652;4.864;2024-03-06T00:45:50;7.07;;;3.03;;
71351;SDS011;59159;51.652;4.864;2024-03-06T00:48:16;6.07;;;2.60;;
71351;SDS011;59159;51.652;4.864;2024-03-06T00:50:45;6.95;;;3.10;;
71351;SDS011;59159;51.652;4.864;2024-03-06T00:53:11;6.32;;;2.80;;
71351;SDS011;59159;51.652;4.864;2024-03-06T00:55:37;6.28;;;2.95;;
71351;SDS011;59159;51.652;4.864;2024-03-06T00:58:03;5.50;;;2.37;;
71351;SDS011;59159;51.652;4.864;2024-03-06T01:00:29;6.55;;;2.92;;
71351;SDS011;59159;51.652;4.864;2024-03-06T01:02:55;6.75;;;2.88;;
71351;SDS011;59159;51.652;4.864;2024-03-06T01:05:21;6.93;;;3.13;;
71351;SDS011;59159;51.652;4.864;2024-03-06T01:07:47;5.78;;;2.58;;
71351;SDS011;59159;51.652;4.864;2024-03-06T01:10:13;6.53;;;2.78;;
71351;SDS011;59159;51.652;4.864;2024-03-06T01:12:39;6.37;;;2.77;;
71351;SDS011;59159;51.652;4.864;2024-03-06T01:15:05;6.75;;;3.05;;
71351;SDS011;59159;51.652;4.864;2024-03-06T01:17:32;6.00;;;2.72;;
71351;SDS011;59159;51.652;4.864;2024-03-06T01:19:58;6.55;;;2.88;;
71351;SDS011;59159;51.652;4.864;2024-03-06T01:22:25;6.27;;;2.70;;
71351;SDS011;59159;51.652;4.864;2024-03-06T01:24:51;6.03;;;2.60;;
71351;SDS011;59159;51.652;4.864;2024-03-06T01:27:17;6.80;;;2.88;;
71351;SDS011;59159;51.652;4.864;2024-03-06T01:29:43;5.70;;;2.50;;
71351;SDS011;59159;51.652;4.864;2024-03-06T01:32:09;6.32;;;2.90;;
71351;SDS011;59159;51.652;4.864;2024-03-06T01:34:35;7.60;;;2.88;;
71351;SDS011;59159;51.652;4.864;2024-03-06T01:37:02;6.30;;;2.60;;
71351;SDS011;59159;51.652;4.864;2024-03-06T01:39:28;6.57;;;2.83;;
71351;SDS011;59159;51.652;4.864;2024-03-06T01:41:54;6.22;;;2.70;;
71351;SDS011;59159;51.652;4.864;2024-03-06T01:44:20;7.30;;;2.70;;
71351;SDS011;59159;51.652;4.864;2024-03-06T01:46:46;6.10;;;2.63;;
71351;SDS011;59159;51.652;4.864;2024-03-06T01:49:13;5.70;;;2.58;;
71351;SDS011;59159;51.652;4.864;2024-03-06T01:51:43;6.55;;;2.85;;
71351;SDS011;59159;51.652;4.864;2024-03-06T01:54:10;6.70;;;2.97;;
71351;SDS011;59159;51.652;4.864;2024-03-06T01:56:36;6.47;;;2.58;;
71351;SDS011;59159;51.652;4.864;2024-03-06T01:59:03;5.75;;;2.45;;
71351;SDS011;59159;51.652;4.864;2024-03-06T02:01:30;5.93;;;2.70;;
71351;SDS011;59159;51.652;4.864;2024-03-06T02:03:56;7.20;;;3.03;;
71351;SDS011;59159;51.652;4.864;2024-03-06T02:06:22;6.72;;;2.80;;
71351;SDS011;59159;51.652;4.864;2024-03-06T02:08:48;6.80;;;2.50;;
71351;SDS011;59159;51.652;4.864;2024-03-06T02:11:15;5.60;;;2.50;;
71351;SDS011;59159;51.652;4.864;2024-03-06T02:13:42;5.40;;;2.33;;
71351;SDS011;59159;51.652;4.864;2024-03-06T02:16:08;7.75;;;2.75;;
71351;SDS011;59159;51.652;4.864;2024-03-06T02:18:35;6.23;;;2.60;;
71351;SDS011;59159;51.652;4.864;2024-03-06T02:21:01;5.70;;;2.50;;
71351;SDS011;59159;51.652;4.864;2024-03-06T02:23:28;5.65;;;2.38;;
71351;SDS011;59159;51.652;4.864;2024-03-06T02:25:54;5.37;;;2.40;;
71351;SDS011;59159;51.652;4.864;2024-03-06T02:28:20;5.90;;;2.33;;
71351;SDS011;59159;51.652;4.864;2024-03-06T02:30:49;5.85;;;2.33;;
71351;SDS011;59159;51.652;4.864;2024-03-06T02:33:15;5.63;;;2.45;;
71351;SDS011;59159;51.652;4.864;2024-03-06T02:35:42;5.83;;;2.67;;
71351;SDS011;59159;51.652;4.864;2024-03-06T02:38:10;5.72;;;2.40;;
71351;SDS011;59159;51.652;4.864;2024-03-06T02:40:35;6.28;;;2.88;;
71351;SDS011;59159;51.652;4.864;2024-03-06T02:43:02;6.37;;;2.57;;
71351;SDS011;59159;51.652;4.864;2024-03-06T02:45:29;4.90;;;2.17;;
71351;SDS011;59159;51.652;4.864;2024-03-06T02:47:55;5.35;;;2.13;;
71351;SDS011;59159;51.652;4.864;2024-03-06T02:50:21;5.97;;;2.70;;
71351;SDS011;59159;51.652;4.864;2024-03-06T02:52:48;5.70;;;2.35;;
71351;SDS011;59159;51.652;4.864;2024-03-06T02:55:16;5.47;;;2.20;;
71351;SDS011;59159;51.652;4.864;2024-03-06T02:57:42;6.43;;;2.60;;
71351;SDS011;59159;51.652;4.864;2024-03-06T03:00:08;5.70;;;2.30;;
71351;SDS011;59159;51.652;4.864;2024-03-06T03:02:41;5.22;;;2.35;;
71351;SDS011;59159;51.652;4.864;2024-03-06T03:05:07;5.65;;;2.50;;
71351;SDS011;59159;51.652;4.864;2024-03-06T03:07:33;5.57;;;2.10;;
71351;SDS011;59159;51.652;4.864;2024-03-06T03:09:59;5.00;;;2.03;;
71351;SDS011;59159;51.652;4.864;2024-03-06T03:12:25;6.05;;;2.35;;
71351;SDS011;59159;51.652;4.864;2024-03-06T03:14:51;5.37;;;2.10;;
71351;SDS011;59159;51.652;4.864;2024-03-06T03:17:18;4.82;;;1.98;;
71351;SDS011;59159;51.652;4.864;2024-03-06T03:19:44;6.15;;;2.50;;
71351;SDS011;59159;51.652;4.864;2024-03-06T03:22:10;5.18;;;2.22;;
71351;SDS011;59159;51.652;4.864;2024-03-06T03:24:36;5.60;;;2.40;;
71351;SDS011;59159;51.652;4.864;2024-03-06T03:27:02;5.53;;;2.35;;
71351;SDS011;59159;51.652;4.864;2024-03-06T03:29:29;5.03;;;2.00;;
71351;SDS011;59159;51.652;4.864;2024-03-06T03:31:55;5.47;;;2.27;;
71351;SDS011;59159;51.652;4.864;2024-03-06T03:34:22;5.70;;;2.00;;
71351;SDS011;59159;51.652;4.864;2024-03-06T03:36:48;5.45;;;2.35;;
71351;SDS011;59159;51.652;4.864;2024-03-06T03:39:14;5.87;;;2.73;;
71351;SDS011;59159;51.652;4.864;2024-03-06T03:41:46;5.53;;;2.03;;
71351;SDS011;59159;51.652;4.864;2024-03-06T03:44:15;5.93;;;2.30;;
71351;SDS011;59159;51.652;4.864;2024-03-06T03:46:41;5.63;;;2.42;;
71351;SDS011;59159;51.652;4.864;2024-03-06T03:49:08;5.97;;;2.30;;
71351;SDS011;59159;51.652;4.864;2024-03-06T03:51:34;5.47;;;2.38;;
71351;SDS011;59159;51.652;4.864;2024-03-06T03:54:01;5.75;;;2.28;;
71351;SDS011;59159;51.652;4.864;2024-03-06T03:56:27;5.83;;;2.40;;
71351;SDS011;59159;51.652;4.864;2024-03-06T03:58:53;6.30;;;2.60;;
71351;SDS011;59159;51.652;4.864;2024-03-06T04:01:19;5.70;;;2.50;;
71351;SDS011;59159;51.652;4.864;2024-03-06T04:03:45;5.60;;;2.63;;
71351;SDS011;59159;51.652;4.864;2024-03-06T04:06:13;5.65;;;2.20;;
71351;SDS011;59159;51.652;4.864;2024-03-06T04:08:39;5.90;;;2.45;;
71351;SDS011;59159;51.652;4.864;2024-03-06T04:11:06;5.32;;;2.22;;
71351;SDS011;59159;51.652;4.864;2024-03-06T04:13:35;6.20;;;2.27;;
71351;SDS011;59159;51.652;4.864;2024-03-06T04:16:01;5.45;;;2.47;;
71351;SDS011;59159;51.652;4.864;2024-03-06T04:18:28;6.43;;;2.40;;
71351;SDS011;59159;51.652;4.864;2024-03-06T04:20:55;5.60;;;2.27;;
71351;SDS011;59159;51.652;4.864;2024-03-06T04:23:21;6.25;;;2.50;;
71351;SDS011;59159;51.652;4.864;2024-03-06T04:25:47;6.18;;;2.35;;
71351;SDS011;59159;51.652;4.864;2024-03-06T04:28:13;5.23;;;2.10;;
71351;SDS011;59159;51.652;4.864;2024-03-06T04:30:39;5.40;;;2.28;;
71351;SDS011;59159;51.652;4.864;2024-03-06T04:33:05;5.30;;;2.05;;
71351;SDS011;59159;51.652;4.864;2024-03-06T04:35:31;6.15;;;2.58;;
71351;SDS011;59159;51.652;4.864;2024-03-06T04:37:57;6.13;;;2.77;;
71351;SDS011;59159;51.652;4.864;2024-03-06T04:40:23;5.82;;;2.40;;
71351;SDS011;59159;51.652;4.864;2024-03-06T04:42:50;5.43;;;2.40;;
71351;SDS011;59159;51.652;4.864;2024-03-06T04:45:16;6.07;;;2.30;;
71351;SDS011;59159;51.652;4.864;2024-03-06T04:47:42;6.72;;;2.50;;
71351;SDS011;59159;51.652;4.864;2024-03-06T04:50:12;6.43;;;2.50;;
71351;SDS011;59159;51.652;4.864;2024-03-06T04:52:39;5.53;;;2.67;;
71351;SDS011;59159;51.652;4.864;2024-03-06T04:55:06;6.38;;;2.83;;
71351;SDS011;59159;51.652;4.864;2024-03-06T04:57:32;6.40;;;2.88;;
71351;SDS011;59159;51.652;4.864;2024-03-06T04:59:58;6.82;;;2.70;;
71351;SDS011;59159;51.652;4.864;2024-03-06T05:02:24;6.30;;;3.03;;
71351;SDS011;59159;51.652;4.864;2024-03-06T05:04:53;6.47;;;3.10;;
71351;SDS011;59159;51.652;4.864;2024-03-06T05:07:19;6.32;;;2.60;;
71351;SDS011;59159;51.652;4.864;2024-03-06T05:09:45;6.80;;;2.90;;
71351;SDS011;59159;51.652;4.864;2024-03-06T05:12:11;6.68;;;2.70;;
71351;SDS011;59159;51.652;4.864;2024-03-06T05:14:37;6.35;;;2.65;;
71351;SDS011;59159;51.652;4.864;2024-03-06T05:17:03;6.07;;;2.83;;
71351;SDS011;59159;51.652;4.864;2024-03-06T05:19:29;6.53;;;2.70;;
71351;SDS011;59159;51.652;4.864;2024-03-06T05:21:57;6.65;;;2.50;;
71351;SDS011;59159;51.652;4.864;2024-03-06T05:24:23;6.20;;;2.70;;
71351;SDS011;59159;51.652;4.864;2024-03-06T05:26:49;5.97;;;2.63;;
71351;SDS011;59159;51.652;4.864;2024-03-06T05:29:15;5.70;;;2.33;;
71351;SDS011;59159;51.652;4.864;2024-03-06T05:31:41;6.93;;;2.92;;
71351;SDS011;59159;51.652;4.864;2024-03-06T05:34:07;6.70;;;2.40;;
71351;SDS011;59159;51.652;4.864;2024-03-06T05:36:33;5.45;;;2.45;;
71351;SDS011;59159;51.652;4.864;2024-03-06T05:38:59;6.53;;;3.13;;
71351;SDS011;59159;51.652;4.864;2024-03-06T05:41:25;6.07;;;3.00;;
71351;SDS011;59159;51.652;4.864;2024-03-06T05:43:51;6.60;;;2.78;;
71351;SDS011;59159;51.652;4.864;2024-03-06T05:46:17;7.30;;;2.88;;
71351;SDS011;59159;51.652;4.864;2024-03-06T05:48:44;6.25;;;2.90;;
71351;SDS011;59159;51.652;4.864;2024-03-06T05:51:10;7.00;;;2.70;;
71351;SDS011;59159;51.652;4.864;2024-03-06T05:53:36;7.25;;;3.00;;
71351;SDS011;59159;51.652;4.864;2024-03-06T05:56:07;6.40;;;2.70;;
71351;SDS011;59159;51.652;4.864;2024-03-06T05:58:33;6.47;;;3.00;;
71351;SDS011;59159;51.652;4.864;2024-03-06T06:01:00;6.78;;;2.90;;
71351;SDS011;59159;51.652;4.864;2024-03-06T06:03:26;6.43;;;3.10;;
71351;SDS011;59159;51.652;4.864;2024-03-06T06:05:53;6.47;;;2.87;;
71351;SDS011;59159;51.652;4.864;2024-03-06T06:08:19;6.00;;;2.83;;
71351;SDS011;59159;51.652;4.864;2024-03-06T06:10:45;6.68;;;2.80;;
71351;SDS011;59159;51.652;4.864;2024-03-06T06:13:11;6.80;;;3.17;;
71351;SDS011;59159;51.652;4.864;2024-03-06T06:15:37;6.73;;;2.70;;
71351;SDS011;59159;51.652;4.864;2024-03-06T06:18:03;6.82;;;2.97;;
71351;SDS011;59159;51.652;4.864;2024-03-06T06:20:29;6.50;;;2.50;;
71351;SDS011;59159;51.652;4.864;2024-03-06T06:22:55;7.10;;;2.93;;
71351;SDS011;59159;51.652;4.864;2024-03-06T06:25:22;6.28;;;3.03;;
71351;SDS011;59159;51.652;4.864;2024-03-06T06:27:47;6.20;;;2.45;;
71351;SDS011;59159;51.652;4.864;2024-03-06T06:30:14;5.43;;;2.50;;
71351;SDS011;59159;51.652;4.864;2024-03-06T06:32:41;10.52;;;2.60;;
71351;SDS011;59159;51.652;4.864;2024-03-06T06:35:08;7.13;;;2.40;;
71351;SDS011;59159;51.652;4.864;2024-03-06T06:37:34;5.53;;;2.25;;
71351;SDS011;59159;51.652;4.864;2024-03-06T06:40:00;6.20;;;2.60;;
71351;SDS011;59159;51.652;4.864;2024-03-06T06:42:31;6.57;;;2.70;;
71351;SDS011;59159;51.652;4.864;2024-03-06T06:44:57;5.88;;;2.30;;
71351;SDS011;59159;51.652;4.864;2024-03-06T06:47:23;5.63;;;2.20;;
71351;SDS011;59159;51.652;4.864;2024-03-06T06:49:49;5.25;;;2.45;;
71351;SDS011;59159;51.652;4.864;2024-03-06T06:52:15;5.82;;;2.58;;
71351;SDS011;59159;51.652;4.864;2024-03-06T06:54:41;5.77;;;2.30;;
71351;SDS011;59159;51.652;4.864;2024-03-06T06:57:07;5.60;;;2.20;;
71351;SDS011;59159;51.652;4.864;2024-03-06T06:59:33;6.50;;;3.17;;
71351;SDS011;59159;51.652;4.864;2024-03-06T07:01:59;6.43;;;2.50;;
71351;SDS011;59159;51.652;4.864;2024-03-06T07:04:25;6.03;;;2.60;;
71351;SDS011;59159;51.652;4.864;2024-03-06T07:06:52;5.40;;;2.30;;
71351;SDS011;59159;51.652;4.864;2024-03-06T07:09:18;5.90;;;2.40;;
71351;SDS011;59159;51.652;4.864;2024-03-06T07:11:44;6.47;;;2.40;;
71351;SDS011;59159;51.652;4.864;2024-03-06T07:14:13;5.70;;;2.33;;
71351;SDS011;59159;51.652;4.864;2024-03-06T07:16:42;5.03;;;2.17;;
71351;SDS011;59159;51.652;4.864;2024-03-06T07:19:09;5.00;;;2.13;;
71351;SDS011;59159;51.652;4.864;2024-03-06T07:21:35;5.68;;;2.15;;
71351;SDS011;59159;51.652;4.864;2024-03-06T07:24:01;5.30;;;2.30;;
71351;SDS011;59159;51.652;4.864;2024-03-06T07:26:27;7.05;;;2.95;;
71351;SDS011;59159;51.652;4.864;2024-03-06T07:28:55;5.90;;;2.43;;
71351;SDS011;59159;51.652;4.864;2024-03-06T07:31:21;5.43;;;2.00;;
71351;SDS011;59159;51.652;4.864;2024-03-06T07:33:47;5.82;;;2.13;;
71351;SDS011;59159;51.652;4.864;2024-03-06T07:36:13;5.70;;;2.10;;
71351;SDS011;59159;51.652;4.864;2024-03-06T07:38:39;4.75;;;2.10;;
71351;SDS011;59159;51.652;4.864;2024-03-06T07:41:06;5.10;;;2.40;;
71351;SDS011;59159;51.652;4.864;2024-03-06T07:43:32;5.10;;;2.10;;
71351;SDS011;59159;51.652;4.864;2024-03-06T07:45:58;4.82;;;1.95;;
71351;SDS011;59159;51.652;4.864;2024-03-06T07:48:24;4.75;;;1.92;;
71351;SDS011;59159;51.652;4.864;2024-03-06T07:50:50;5.93;;;2.45;;
71351;SDS011;59159;51.652;4.864;2024-03-06T07:53:17;5.07;;;1.90;;
71351;SDS011;59159;51.652;4.864;2024-03-06T07:55:42;5.63;;;2.47;;
71351;SDS011;59159;51.652;4.864;2024-03-06T07:58:09;6.78;;;2.30;;
71351;SDS011;59159;51.652;4.864;2024-03-06T08:00:35;6.43;;;2.10;;
71351;SDS011;59159;51.652;4.864;2024-03-06T08:03:01;5.32;;;2.05;;
71351;SDS011;59159;51.652;4.864;2024-03-06T08:05:30;4.97;;;1.90;;
71351;SDS011;59159;51.652;4.864;2024-03-06T08:07:58;6.27;;;2.00;;
71351;SDS011;59159;51.652;4.864;2024-03-06T08:10:24;5.20;;;2.03;;
71351;SDS011;59159;51.652;4.864;2024-03-06T08:12:50;5.47;;;2.28;;
71351;SDS011;59159;51.652;4.864;2024-03-06T08:15:16;5.30;;;2.10;;
71351;SDS011;59159;51.652;4.864;2024-03-06T08:17:43;5.10;;;2.00;;
71351;SDS011;59159;51.652;4.864;2024-03-06T08:20:09;5.55;;;2.08;;
71351;SDS011;59159;51.652;4.864;2024-03-06T08:22:39;5.30;;;2.10;;
71351;SDS011;59159;51.652;4.864;2024-03-06T08:25:06;5.80;;;2.17;;
71351;SDS011;59159;51.652;4.864;2024-03-06T08:27:33;5.60;;;2.10;;
71351;SDS011;59159;51.652;4.864;2024-03-06T08:29:59;4.95;;;1.98;;
71351;SDS011;59159;51.652;4.864;2024-03-06T08:32:25;5.10;;;2.10;;
71351;SDS011;59159;51.652;4.864;2024-03-06T08:34:52;5.38;;;1.95;;
71351;SDS011;59159;51.652;4.864;2024-03-06T08:37:18;6.97;;;2.33;;
71351;SDS011;59159;51.652;4.864;2024-03-06T08:39:44;5.45;;;2.33;;
71351;SDS011;59159;51.652;4.864;2024-03-06T08:42:10;5.57;;;2.37;;
71351;SDS011;59159;51.652;4.864;2024-03-06T08:44:37;6.18;;;2.60;;
71351;SDS011;59159;51.652;4.864;2024-03-06T08:47:03;6.25;;;2.20;;
71351;SDS011;59159;51.652;4.864;2024-03-06T08:49:29;6.13;;;2.27;;
71351;SDS011;59159;51.652;4.864;2024-03-06T08:51:55;6.18;;;2.17;;
71351;SDS011;59159;51.652;4.864;2024-03-06T08:54:22;5.55;;;2.25;;
71351;SDS011;59159;51.652;4.864;2024-03-06T08:56:48;8.43;;;4.43;;
71351;SDS011;59159;51.652;4.864;2024-03-06T08:59:14;4.88;;;1.80;;
71351;SDS011;59159;51.652;4.864;2024-03-06T09:01:40;5.43;;;2.00;;
71351;SDS011;59159;51.652;4.864;2024-03-06T09:04:06;5.00;;;1.83;;
71351;SDS011;59159;51.652;4.864;2024-03-06T09:06:32;5.20;;;2.00;;
71351;SDS011;59159;51.652;4.864;2024-03-06T09:08:58;5.43;;;2.10;;
71351;SDS011;59159;51.652;4.864;2024-03-06T09:11:24;5.68;;;2.00;;
71351;SDS011;59159;51.652;4.864;2024-03-06T09:13:50;5.40;;;2.10;;
71351;SDS011;59159;51.652;4.864;2024-03-06T09:16:16;6.00;;;1.95;;
71351;SDS011;59159;51.652;4.864;2024-03-06T09:18:43;5.40;;;1.92;;
71351;SDS011;59159;51.652;4.864;2024-03-06T09:21:09;5.30;;;1.80;;
71351;SDS011;59159;51.652;4.864;2024-03-06T09:23:35;6.70;;;2.20;;
71351;SDS011;59159;51.652;4.864;2024-03-06T09:26:01;6.38;;;2.03;;
71351;SDS011;59159;51.652;4.864;2024-03-06T09:28:27;5.93;;;2.00;;
71351;SDS011;59159;51.652;4.864;2024-03-06T09:30:53;4.97;;;1.87;;
71351;SDS011;59159;51.652;4.864;2024-03-06T09:33:19;5.53;;;2.20;;
71351;SDS011;59159;51.652;4.864;2024-03-06T09:35:45;5.55;;;2.03;;
71351;SDS011;59159;51.652;4.864;2024-03-06T09:38:11;5.90;;;2.00;;
71351;SDS011;59159;51.652;4.864;2024-03-06T09:40:41;5.32;;;1.95;;
71351;SDS011;59159;51.652;4.864;2024-03-06T09:43:07;5.28;;;1.70;;
71351;SDS011;59159;51.652;4.864;2024-03-06T09:45:33;5.50;;;2.40;;
71351;SDS011;59159;51.652;4.864;2024-03-06T09:48:00;4.93;;;1.65;;
71351;SDS011;59159;51.652;4.864;2024-03-06T09:50:26;5.63;;;1.88;;
71351;SDS011;59159;51.652;4.864;2024-03-06T09:52:55;4.70;;;1.95;;
71351;SDS011;59159;51.652;4.864;2024-03-06T09:55:21;4.67;;;1.80;;
71351;SDS011;59159;51.652;4.864;2024-03-06T09:57:47;5.30;;;1.90;;
71351;SDS011;59159;51.652;4.864;2024-03-06T10:00:15;4.80;;;1.80;;
71351;SDS011;59159;51.652;4.864;2024-03-06T10:02:46;5.40;;;2.00;;
71351;SDS011;59159;51.652;4.864;2024-03-06T10:05:20;4.93;;;1.70;;
71351;SDS011;59159;51.652;4.864;2024-03-06T10:07:47;4.88;;;1.90;;
71351;SDS011;59159;51.652;4.864;2024-03-06T10:10:14;4.93;;;1.70;;
71351;SDS011;59159;51.652;4.864;2024-03-06T10:12:41;5.53;;;2.15;;
71351;SDS011;59159;51.652;4.864;2024-03-06T10:15:07;4.90;;;1.80;;
71351;SDS011;59159;51.652;4.864;2024-03-06T10:17:37;4.82;;;1.95;;
71351;SDS011;59159;51.652;4.864;2024-03-06T10:20:22;4.90;;;1.77;;
71351;SDS011;59159;51.652;4.864;2024-03-06T10:22:49;4.60;;;1.50;;
71351;SDS011;59159;51.652;4.864;2024-03-06T10:25:18;4.90;;;1.75;;
71351;SDS011;59159;51.652;4.864;2024-03-06T10:27:45;4.60;;;1.70;;
71351;SDS011;59159;51.652;4.864;2024-03-06T10:30:11;5.32;;;1.88;;
71351;SDS011;59159;51.652;4.864;2024-03-06T10:32:41;5.30;;;1.90;;
71351;SDS011;59159;51.652;4.864;2024-03-06T10:35:17;4.20;;;1.60;;
71351;SDS011;59159;51.652;4.864;2024-03-06T10:37:43;4.90;;;1.70;;
71351;SDS011;59159;51.652;4.864;2024-03-06T10:40:10;4.45;;;1.60;;
71351;SDS011;59159;51.652;4.864;2024-03-06T10:42:38;5.22;;;1.98;;
71351;SDS011;59159;51.652;4.864;2024-03-06T10:45:07;5.03;;;1.60;;
71351;SDS011;59159;51.652;4.864;2024-03-06T10:47:33;5.18;;;1.70;;
71351;SDS011;59159;51.652;4.864;2024-03-06T10:50:02;4.70;;;1.67;;
71351;SDS011;59159;51.652;4.864;2024-03-06T10:52:29;4.40;;;1.37;;
71351;SDS011;59159;51.652;4.864;2024-03-06T10:54:58;4.00;;;1.25;;
71351;SDS011;59159;51.652;4.864;2024-03-06T10:57:24;4.50;;;1.40;;
71351;SDS011;59159;51.652;4.864;2024-03-06T10:59:52;5.23;;;1.77;;
71351;SDS011;59159;51.652;4.864;2024-03-06T11:02:18;5.25;;;1.80;;
71351;SDS011;59159;51.652;4.864;2024-03-06T11:04:44;4.32;;;1.52;;
71351;SDS011;59159;51.652;4.864;2024-03-06T11:07:10;4.55;;;1.50;;
71351;SDS011;59159;51.652;4.864;2024-03-06T11:09:36;4.77;;;1.50;;
71351;SDS011;59159;51.652;4.864;2024-03-06T11:12:03;4.45;;;1.50;;
71351;SDS011;59159;51.652;4.864;2024-03-06T11:14:32;4.80;;;1.60;;
71351;SDS011;59159;51.652;4.864;2024-03-06T11:17:03;5.23;;;1.77;;
71351;SDS011;59159;51.652;4.864;2024-03-06T11:19:29;4.40;;;1.50;;
71351;SDS011;59159;51.652;4.864;2024-03-06T11:21:56;4.47;;;1.60;;
71351;SDS011;59159;51.652;4.864;2024-03-06T11:24:23;3.93;;;1.50;;
71351;SDS011;59159;51.652;4.864;2024-03-06T11:26:50;4.80;;;1.42;;
71351;SDS011;59159;51.652;4.864;2024-03-06T11:29:19;4.60;;;1.77;;
71351;SDS011;59159;51.652;4.864;2024-03-06T11:32:02;4.82;;;1.70;;
71351;SDS011;59159;51.652;4.864;2024-03-06T11:34:29;5.40;;;1.70;;
71351;SDS011;59159;51.652;4.864;2024-03-06T11:36:59;4.63;;;1.65;;
71351;SDS011;59159;51.652;4.864;2024-03-06T11:39:28;4.35;;;1.42;;
71351;SDS011;59159;51.652;4.864;2024-03-06T11:41:59;4.17;;;1.50;;
71351;SDS011;59159;51.652;4.864;2024-03-06T11:44:26;4.38;;;1.50;;
71351;SDS011;59159;51.652;4.864;2024-03-06T11:47:02;4.88;;;1.95;;
71351;SDS011;59159;51.652;4.864;2024-03-06T11:49:28;4.27;;;1.40;;
71351;SDS011;59159;51.652;4.864;2024-03-06T11:52:01;4.72;;;1.70;;
71351;SDS011;59159;51.652;4.864;2024-03-06T11:54:28;5.68;;;1.60;;
71351;SDS011;59159;51.652;4.864;2024-03-06T11:56:55;4.32;;;1.33;;
71351;SDS011;59159;51.652;4.864;2024-03-06T11:59:22;4.20;;;1.50;;
71351;SDS011;59159;51.652;4.864;2024-03-06T12:01:49;4.32;;;1.60;;
71351;SDS011;59159;51.652;4.864;2024-03-06T12:04:15;4.25;;;1.35;;
71351;SDS011;59159;51.652;4.864;2024-03-06T12:06:41;3.90;;;1.30;;
71351;SDS011;59159;51.652;4.864;2024-03-06T12:09:07;4.00;;;1.35;;
71351;SDS011;59159;51.652;4.864;2024-03-06T12:11:36;4.13;;;1.42;;
71351;SDS011;59159;51.652;4.864;2024-03-06T12:14:02;4.50;;;1.67;;
71351;SDS011;59159;51.652;4.864;2024-03-06T12:16:28;4.35;;;1.30;;
71351;SDS011;59159;51.652;4.864;2024-03-06T12:18:55;5.38;;;1.67;;
71351;SDS011;59159;51.652;4.864;2024-03-06T12:21:27;4.75;;;1.63;;
71351;SDS011;59159;51.652;4.864;2024-03-06T12:24:03;4.20;;;1.30;;
71351;SDS011;59159;51.652;4.864;2024-03-06T12:26:30;3.95;;;1.30;;
71351;SDS011;59159;51.652;4.864;2024-03-06T12:29:05;4.63;;;1.70;;
71351;SDS011;59159;51.652;4.864;2024-03-06T12:31:32;3.33;;;1.10;;
71351;SDS011;59159;51.652;4.864;2024-03-06T12:33:58;4.65;;;1.25;;
71351;SDS011;59159;51.652;4.864;2024-03-06T12:36:25;4.00;;;1.40;;
71351;SDS011;59159;51.652;4.864;2024-03-06T12:38:54;4.43;;;1.40;;
71351;SDS011;59159;51.652;4.864;2024-03-06T12:41:20;3.90;;;1.20;;
71351;SDS011;59159;51.652;4.864;2024-03-06T12:43:46;4.35;;;1.55;;
71351;SDS011;59159;51.652;4.864;2024-03-06T12:46:12;3.90;;;1.40;;
71351;SDS011;59159;51.652;4.864;2024-03-06T12:48:38;4.17;;;1.30;;
71351;SDS011;59159;51.652;4.864;2024-03-06T12:51:04;3.88;;;1.42;;
71351;SDS011;59159;51.652;4.864;2024-03-06T12:53:30;4.25;;;1.58;;
71351;SDS011;59159;51.652;4.864;2024-03-06T12:55:58;3.50;;;1.23;;
71351;SDS011;59159;51.652;4.864;2024-03-06T12:58:24;3.85;;;1.17;;
71351;SDS011;59159;51.652;4.864;2024-03-06T13:00:50;4.60;;;1.23;;
71351;SDS011;59159;51.652;4.864;2024-03-06T13:03:17;4.27;;;1.23;;
71351;SDS011;59159;51.652;4.864;2024-03-06T13:05:43;4.40;;;1.40;;
71351;SDS011;59159;51.652;4.864;2024-03-06T13:08:09;3.80;;;1.15;;
71351;SDS011;59159;51.652;4.864;2024-03-06T13:10:39;4.22;;;1.40;;
71351;SDS011;59159;51.652;4.864;2024-03-06T13:13:05;4.20;;;1.27;;
71351;SDS011;59159;51.652;4.864;2024-03-06T13:15:31;4.03;;;1.30;;
71351;SDS011;59159;51.652;4.864;2024-03-06T13:17:59;4.20;;;1.42;;
71351;SDS011;59159;51.652;4.864;2024-03-06T13:20:28;3.90;;;1.30;;
71351;SDS011;59159;51.652;4.864;2024-03-06T13:22:54;4.32;;;1.25;;
71351;SDS011;59159;51.652;4.864;2024-03-06T13:25:20;3.65;;;1.17;;
71351;SDS011;59159;51.652;4.864;2024-03-06T13:27:46;4.40;;;1.60;;
71351;SDS011;59159;51.652;4.864;2024-03-06T13:30:12;3.92;;;1.30;;
71351;SDS011;59159;51.652;4.864;2024-03-06T13:32:38;4.03;;;1.40;;
71351;SDS011;59159;51.652;4.864;2024-03-06T13:35:05;4.38;;;1.58;;
71351;SDS011;59159;51.652;4.864;2024-03-06T13:37:37;3.90;;;1.10;;
71351;SDS011;59159;51.652;4.864;2024-03-06T13:40:04;3.70;;;1.30;;
71351;SDS011;59159;51.652;4.864;2024-03-06T13:42:32;4.65;;;1.55;;
71351;SDS011;59159;51.652;4.864;2024-03-06T13:44:58;4.70;;;1.30;;
71351;SDS011;59159;51.652;4.864;2024-03-06T13:47:24;4.13;;;1.30;;
71351;SDS011;59159;51.652;4.864;2024-03-06T13:49:51;3.60;;;1.17;;
71351;SDS011;59159;51.652;4.864;2024-03-06T13:52:17;4.77;;;1.53;;
71351;SDS011;59159;51.652;4.864;2024-03-06T13:54:45;4.57;;;1.33;;
71351;SDS011;59159;51.652;4.864;2024-03-06T13:57:11;4.25;;;1.30;;
71351;SDS011;59159;51.652;4.864;2024-03-06T13:59:37;4.05;;;1.75;;
71351;SDS011;59159;51.652;4.864;2024-03-06T14:02:03;4.13;;;1.40;;
71351;SDS011;59159;51.652;4.864;2024-03-06T14:04:30;4.10;;;1.45;;
71351;SDS011;59159;51.652;4.864;2024-03-06T14:06:56;4.10;;;1.33;;
71351;SDS011;59159;51.652;4.864;2024-03-06T14:09:23;4.60;;;1.50;;
71351;SDS011;59159;51.652;4.864;2024-03-06T14:11:50;4.47;;;1.40;;
71351;SDS011;59159;51.652;4.864;2024-03-06T14:14:16;4.30;;;1.50;;
71351;SDS011;59159;51.652;4.864;2024-03-06T14:16:42;3.63;;;1.23;;
71351;SDS011;59159;51.652;4.864;2024-03-06T14:19:08;4.57;;;1.38;;
71351;SDS011;59159;51.652;4.864;2024-03-06T14:21:35;3.85;;;1.10;;
71351;SDS011;59159;51.652;4.864;2024-03-06T14:24:01;3.95;;;1.25;;
71351;SDS011;59159;51.652;4.864;2024-03-06T14:26:31;3.83;;;1.20;;
71351;SDS011;59159;51.652;4.864;2024-03-06T14:28:57;4.88;;;1.30;;
71351;SDS011;59159;51.652;4.864;2024-03-06T14:31:23;8.60;;;1.67;;
71351;SDS011;59159;51.652;4.864;2024-03-06T14:33:50;5.73;;;1.23;;
71351;SDS011;59159;51.652;4.864;2024-03-06T14:36:16;4.65;;;1.40;;
71351;SDS011;59159;51.652;4.864;2024-03-06T14:38:42;4.32;;;1.60;;
71351;SDS011;59159;51.652;4.864;2024-03-06T14:41:15;3.83;;;1.33;;
71351;SDS011;59159;51.652;4.864;2024-03-06T14:43:41;4.57;;;1.52;;
71351;SDS011;59159;51.652;4.864;2024-03-06T14:46:10;4.78;;;1.70;;